Onondaga, Michigan
Current Conditions -  °F | °C
As of 5:31 PM on Sunday 23 Nov 2014 (Local Time) from KTEW Reporting Station
Moderate Rain Moderate Rain  
Wind Chill: 45°   Ceiling: 3000
Heat Index: 49°   Visibility: 5mi
Dew Point: 48°   Wind: 9mph
Humidity: 95%   Direction: 120°ESE
Pressure: 29.6"   Gusts: NA
Location:  42.44°N, 84.56°W
Report Text: KTEW 232231Z AUTO 12008KT 5SM RA SCT009 BKN030 OVC040 10/09 A2960 RMK AO2 T00960088
Loading
Personal Weather Stations






























Interactive Weather Map New forecast layout! Learn more

10-Day Weather Forecast

Advertisements
Track Severe Weather on mobile